createdAt,value
2017-08-09T00:02:25.470Z,50.97
2017-08-09T00:04:53.023Z,51.31
2017-08-09T00:07:20.538Z,51.22
2017-08-09T00:09:48.080Z,51.12
2017-08-09T00:12:15.605Z,51.17
2017-08-09T00:14:43.172Z,51.19
2017-08-09T00:17:10.689Z,51.17
2017-08-09T00:19:38.250Z,51.22
2017-08-09T00:22:05.773Z,51.20
2017-08-09T00:24:33.318Z,51.26
2017-08-09T00:27:00.834Z,51.16
2017-08-09T00:29:28.389Z,51.38
2017-08-09T00:31:55.902Z,51.12
2017-08-09T00:34:23.423Z,51.07
2017-08-09T00:36:50.970Z,51.05
2017-08-09T00:39:18.482Z,51.28
2017-08-09T00:41:46.025Z,51.04
2017-08-09T00:44:13.550Z,51.17
2017-08-09T00:46:41.133Z,51.11
2017-08-09T00:49:08.654Z,51.01
2017-08-09T00:51:36.193Z,50.85
2017-08-09T00:54:03.708Z,51.01
2017-08-09T00:56:31.254Z,50.65
2017-08-09T00:58:58.771Z,50.65
2017-08-09T01:01:26.340Z,50.50
2017-08-09T01:03:54.479Z,50.53
2017-08-09T01:06:22.038Z,50.86
2017-08-09T01:08:49.580Z,50.61
2017-08-09T01:11:17.130Z,50.64
2017-08-09T01:13:44.661Z,50.76
2017-08-09T01:16:12.213Z,50.70
2017-08-09T01:18:39.738Z,50.67
2017-08-09T01:21:07.307Z,50.63
2017-08-09T01:23:34.826Z,50.71
2017-08-09T01:26:02.345Z,51.01
2017-08-09T01:28:29.893Z,50.64
2017-08-09T01:30:57.414Z,50.73
2017-08-09T01:33:24.997Z,50.81
2017-08-09T01:35:52.507Z,50.72
2017-08-09T01:38:20.058Z,50.76
2017-08-09T01:40:47.606Z,50.78
2017-08-09T01:43:15.154Z,50.63
2017-08-09T01:45:42.672Z,50.29
2017-08-09T01:48:10.222Z,50.63
2017-08-09T01:50:37.734Z,50.57
2017-08-09T01:53:05.309Z,50.46
2017-08-09T01:55:32.831Z,50.47
2017-08-09T01:58:00.346Z,50.42
2017-08-09T02:00:27.906Z,50.57
2017-08-09T02:02:55.510Z,50.65
2017-08-09T02:05:23.130Z,50.59
2017-08-09T02:07:50.654Z,50.71
2017-08-09T02:10:18.213Z,50.58
2017-08-09T02:12:45.733Z,50.60
2017-08-09T02:15:13.253Z,50.76
2017-08-09T02:17:40.810Z,50.74
2017-08-09T02:20:08.324Z,50.75
2017-08-09T02:22:35.878Z,50.95
2017-08-09T02:25:03.395Z,51.07
2017-08-09T02:27:30.949Z,51.14
2017-08-09T02:29:58.474Z,51.04
2017-08-09T02:32:26.029Z,51.00
2017-08-09T02:34:53.553Z,50.88
2017-08-09T02:37:21.247Z,50.79
2017-08-09T02:39:48.779Z,50.86
2017-08-09T02:42:16.299Z,50.82
2017-08-09T02:44:43.863Z,51.12
2017-08-09T02:47:11.614Z,51.13
2017-08-09T02:49:39.184Z,51.29
2017-08-09T02:52:06.702Z,51.08
2017-08-09T02:54:34.256Z,50.91
2017-08-09T02:57:01.771Z,51.18
2017-08-09T02:59:29.318Z,51.06
2017-08-09T03:01:56.840Z,51.15
2017-08-09T03:04:24.399Z,51.04
2017-08-09T03:06:51.929Z,51.15
2017-08-09T03:09:19.485Z,51.25
2017-08-09T03:11:47.009Z,51.13
2017-08-09T03:14:14.522Z,51.13
2017-08-09T03:16:42.073Z,51.13
2017-08-09T03:19:09.586Z,51.01
2017-08-09T03:21:37.157Z,50.96
2017-08-09T03:24:04.672Z,51.00
2017-08-09T03:26:32.218Z,50.99
2017-08-09T03:28:59.737Z,50.79
2017-08-09T03:31:27.284Z,50.87
2017-08-09T03:33:55.167Z,50.76
2017-08-09T03:36:22.716Z,50.87
2017-08-09T03:38:50.231Z,50.87
2017-08-09T03:41:17.789Z,50.85
2017-08-09T03:43:45.313Z,51.13
2017-08-09T03:46:12.865Z,51.11
2017-08-09T03:48:40.394Z,51.22
2017-08-09T03:51:07.949Z,51.31
2017-08-09T03:53:35.478Z,51.15
2017-08-09T03:56:02.996Z,51.23
2017-08-09T03:58:30.545Z,51.17
2017-08-09T04:00:58.066Z,51.35
2017-08-09T04:03:25.620Z,51.04
2017-08-09T04:05:53.145Z,51.09
2017-08-09T04:08:20.706Z,51.07
2017-08-09T04:10:48.221Z,51.06
2017-08-09T04:13:15.774Z,50.98
2017-08-09T04:15:43.325Z,50.97
2017-08-09T04:18:10.890Z,50.95
2017-08-09T04:20:38.409Z,50.86
2017-08-09T04:23:05.951Z,51.02
2017-08-09T04:25:33.464Z,50.97
2017-08-09T04:28:01.093Z,51.22
2017-08-09T04:30:28.613Z,51.22
2017-08-09T04:32:56.160Z,50.91
2017-08-09T04:35:23.676Z,50.93
2017-08-09T04:37:51.226Z,51.06
2017-08-09T04:40:18.785Z,50.92
2017-08-09T04:42:46.329Z,50.91
2017-08-09T04:45:13.848Z,50.97
2017-08-09T04:47:41.374Z,50.88
2017-08-09T04:50:08.919Z,51.07
2017-08-09T04:52:36.434Z,51.05
2017-08-09T04:55:03.986Z,51.12
2017-08-09T04:57:31.508Z,51.36
2017-08-09T04:59:59.063Z,51.37
2017-08-09T05:02:26.590Z,51.04
2017-08-09T05:04:54.133Z,51.45
2017-08-09T05:07:21.648Z,51.08
2017-08-09T05:09:49.245Z,51.42
2017-08-09T05:12:16.765Z,51.52
2017-08-09T05:14:44.308Z,51.78
2017-08-09T05:17:11.822Z,51.68
2017-08-09T05:19:39.376Z,51.95
2017-08-09T05:22:06.884Z,51.97
2017-08-09T05:24:34.475Z,52.37
2017-08-09T05:27:02.004Z,52.44
2017-08-09T05:29:29.578Z,52.61
2017-08-09T05:31:57.099Z,52.50
2017-08-09T05:34:24.624Z,52.79
2017-08-09T05:36:52.179Z,52.67
2017-08-09T05:39:19.697Z,52.71
2017-08-09T05:41:47.256Z,52.61
2017-08-09T05:44:14.783Z,52.69
2017-08-09T05:46:42.339Z,52.70
2017-08-09T05:49:09.860Z,52.93
2017-08-09T05:51:37.405Z,52.99
2017-08-09T05:54:04.918Z,52.92
2017-08-09T05:56:32.482Z,52.92
2017-08-09T05:58:59.995Z,52.99
2017-08-09T06:01:27.509Z,53.03
2017-08-09T06:03:55.512Z,52.97
2017-08-09T06:06:23.033Z,53.23
2017-08-09T06:08:50.582Z,53.04
2017-08-09T06:11:18.116Z,53.18
2017-08-09T06:13:45.665Z,53.33
2017-08-09T06:16:13.213Z,53.14
2017-08-09T06:18:40.788Z,53.25
2017-08-09T06:21:08.323Z,53.30
2017-08-09T06:23:35.883Z,53.26
2017-08-09T06:26:03.407Z,53.25
2017-08-09T06:28:30.973Z,53.23
2017-08-09T06:30:58.502Z,53.43
2017-08-09T06:33:26.050Z,53.38
2017-08-09T06:35:53.564Z,53.25
2017-08-09T06:38:21.122Z,53.38
2017-08-09T06:40:48.641Z,53.32
2017-08-09T06:43:16.184Z,53.44
2017-08-09T06:45:43.707Z,53.40
2017-08-09T06:48:11.276Z,53.47
2017-08-09T06:50:38.799Z,53.50
2017-08-09T06:53:06.342Z,53.72
2017-08-09T06:55:33.887Z,53.52
2017-08-09T06:58:01.413Z,53.48
2017-08-09T07:00:29.024Z,53.52
2017-08-09T07:02:56.549Z,53.40
2017-08-09T07:05:24.096Z,53.51
2017-08-09T07:07:51.622Z,53.40
2017-08-09T07:10:19.174Z,53.47
2017-08-09T07:12:46.721Z,53.54
2017-08-09T07:15:14.275Z,53.48
2017-08-09T07:17:41.806Z,53.58
2017-08-09T07:20:09.353Z,53.37
2017-08-09T07:22:36.886Z,53.57
2017-08-09T07:25:04.456Z,53.66
2017-08-09T07:27:32.006Z,53.57
2017-08-09T07:29:59.589Z,53.56
2017-08-09T07:32:27.108Z,53.53
2017-08-09T07:34:54.632Z,53.81
2017-08-09T07:37:22.184Z,53.67
2017-08-09T07:39:49.704Z,53.73
2017-08-09T07:42:17.254Z,53.70
2017-08-09T07:44:44.768Z,53.64
2017-08-09T07:47:12.321Z,53.85
2017-08-09T07:49:39.840Z,53.85
2017-08-09T07:52:07.460Z,53.83
2017-08-09T07:54:34.982Z,53.84
2017-08-09T07:57:02.543Z,53.84
2017-08-09T07:59:30.076Z,53.83
2017-08-09T08:01:57.636Z,53.77
2017-08-09T08:04:25.152Z,53.82
2017-08-09T08:06:52.718Z,53.87
2017-08-09T08:09:20.255Z,53.78
2017-08-09T08:11:47.814Z,53.83
2017-08-09T08:14:15.335Z,53.85
2017-08-09T08:16:42.903Z,53.79
2017-08-09T08:19:10.426Z,53.99
2017-08-09T08:21:37.993Z,53.83
2017-08-09T08:24:05.519Z,54.04
2017-08-09T08:26:33.041Z,53.95
2017-08-09T08:29:00.585Z,53.99
2017-08-09T08:31:28.096Z,53.89
2017-08-09T08:33:56.528Z,53.89
2017-08-09T08:36:24.046Z,54.12
2017-08-09T08:38:51.605Z,54.06
2017-08-09T08:41:19.122Z,54.02
2017-08-09T08:43:46.672Z,54.02
2017-08-09T08:46:14.183Z,53.94
2017-08-09T08:48:43.328Z,53.99
2017-08-09T08:51:12.397Z,54.09
2017-08-09T08:53:41.572Z,53.97
2017-08-09T08:56:09.494Z,54.22
2017-08-09T08:58:38.218Z,54.03
2017-08-09T09:01:07.310Z,54.00
2017-08-09T09:03:36.433Z,54.17
2017-08-09T09:06:05.342Z,54.04
2017-08-09T09:08:33.162Z,54.16
2017-08-09T09:11:02.168Z,54.14
2017-08-09T09:13:31.030Z,54.36
2017-08-09T09:16:00.014Z,54.33
2017-08-09T09:18:27.979Z,54.12
2017-08-09T09:20:56.014Z,54.39
2017-08-09T09:23:24.855Z,54.64
2017-08-09T09:25:52.675Z,54.34
2017-08-09T09:28:20.852Z,54.56
2017-08-09T09:30:49.253Z,54.71
2017-08-09T09:33:17.991Z,54.38
2017-08-09T09:35:45.667Z,54.66
2017-08-09T09:38:13.193Z,54.53
2017-08-09T09:40:40.750Z,55.08
2017-08-09T09:43:08.353Z,55.04
2017-08-09T09:45:35.961Z,54.71
2017-08-09T09:48:03.483Z,55.20
2017-08-09T09:50:31.038Z,54.58
2017-08-09T09:52:58.562Z,54.38
2017-08-09T09:55:26.126Z,54.44
2017-08-09T09:57:53.645Z,55.20
2017-08-09T10:00:21.271Z,54.51
2017-08-09T10:02:48.827Z,54.99
2017-08-09T10:05:16.353Z,54.58
2017-08-09T10:07:43.901Z,54.50
2017-08-09T10:10:11.451Z,54.49
2017-08-09T10:12:39.002Z,55.07
2017-08-09T10:15:06.520Z,55.12
2017-08-09T10:17:34.081Z,54.85
2017-08-09T10:20:01.603Z,55.01
2017-08-09T10:22:29.153Z,54.85
2017-08-09T10:24:56.678Z,55.07
2017-08-09T10:27:24.230Z,54.89
2017-08-09T10:29:51.745Z,55.07
2017-08-09T10:32:19.299Z,54.54
2017-08-09T10:34:46.824Z,54.57
2017-08-09T10:37:14.449Z,54.74
2017-08-09T10:39:41.965Z,54.74
2017-08-09T10:42:09.523Z,54.78
2017-08-09T10:44:37.047Z,54.57
2017-08-09T10:47:04.561Z,54.54
2017-08-09T10:49:32.157Z,54.53
2017-08-09T10:51:59.695Z,54.65
2017-08-09T10:54:27.253Z,54.68
2017-08-09T10:56:54.771Z,54.45
2017-08-09T10:59:22.398Z,54.39
2017-08-09T11:01:49.924Z,54.36
2017-08-09T11:04:17.472Z,54.22
2017-08-09T11:06:45.012Z,54.39
2017-08-09T11:09:12.566Z,54.31
2017-08-09T11:11:40.077Z,54.21
2017-08-09T11:14:07.642Z,54.22
2017-08-09T11:16:35.161Z,54.20
2017-08-09T11:19:02.721Z,54.06
2017-08-09T11:21:30.240Z,54.01
2017-08-09T11:23:57.830Z,54.15
2017-08-09T11:26:25.346Z,54.13
2017-08-09T11:28:52.868Z,54.18
2017-08-09T11:31:20.467Z,54.03
2017-08-09T11:33:48.003Z,54.13
2017-08-09T11:36:15.563Z,54.13
2017-08-09T11:38:43.081Z,54.09
2017-08-09T11:41:10.638Z,54.00
2017-08-09T11:43:38.165Z,54.04
2017-08-09T11:46:05.709Z,54.18
2017-08-09T11:48:33.221Z,53.92
2017-08-09T11:51:00.773Z,54.03
2017-08-09T11:53:28.300Z,54.04
2017-08-09T11:55:55.844Z,54.04
2017-08-09T11:58:23.376Z,54.19
2017-08-09T12:00:50.979Z,54.11
2017-08-09T12:03:18.503Z,54.05
2017-08-09T12:05:46.053Z,53.98
2017-08-09T12:08:13.569Z,53.93
2017-08-09T12:10:41.118Z,53.96
2017-08-09T12:13:08.632Z,53.99
2017-08-09T12:15:36.213Z,54.09
2017-08-09T12:18:03.795Z,54.10
2017-08-09T12:20:31.300Z,54.12
2017-08-09T12:22:58.848Z,53.92
2017-08-09T12:25:26.373Z,53.95
2017-08-09T12:27:53.931Z,53.99
2017-08-09T12:30:22.790Z,53.97
2017-08-09T12:32:50.569Z,53.85
2017-08-09T12:35:18.155Z,53.89
2017-08-09T12:37:45.939Z,54.02
2017-08-09T12:40:13.761Z,54.15
2017-08-09T12:42:42.141Z,53.93
2017-08-09T12:45:10.258Z,53.92
2017-08-09T12:47:38.227Z,53.90
2017-08-09T12:50:06.669Z,53.85
2017-08-09T12:52:35.204Z,53.97
2017-08-09T12:55:02.941Z,54.02
2017-08-09T12:57:30.954Z,54.02
2017-08-09T12:59:58.656Z,54.04
2017-08-09T13:02:26.430Z,53.86
2017-08-09T13:04:55.536Z,53.99
2017-08-09T13:07:23.274Z,54.06
2017-08-09T13:09:51.165Z,54.02
2017-08-09T13:12:18.752Z,54.08
2017-08-09T13:14:46.269Z,54.01
2017-08-09T13:17:13.786Z,53.97
2017-08-09T13:19:41.326Z,53.99
2017-08-09T13:22:08.852Z,53.76
2017-08-09T13:24:36.412Z,53.98
2017-08-09T13:27:03.940Z,54.04
2017-08-09T13:29:31.500Z,53.98
2017-08-09T13:31:59.026Z,54.05
2017-08-09T13:34:26.568Z,54.15
2017-08-09T13:36:54.122Z,54.13
2017-08-09T13:39:21.665Z,54.05
2017-08-09T13:41:49.181Z,54.08
2017-08-09T13:44:16.724Z,54.01
2017-08-09T13:46:44.254Z,53.96
2017-08-09T13:49:11.798Z,54.00
2017-08-09T13:51:39.337Z,54.08
2017-08-09T13:54:06.900Z,54.08
2017-08-09T13:56:34.417Z,53.98
2017-08-09T13:59:01.998Z,53.88
2017-08-09T14:01:29.524Z,53.99
2017-08-09T14:03:57.041Z,54.04
2017-08-09T14:06:24.592Z,54.00
2017-08-09T14:08:52.109Z,54.13
2017-08-09T14:11:19.670Z,54.16
2017-08-09T14:13:47.188Z,54.12
2017-08-09T14:16:14.738Z,54.09
2017-08-09T14:18:42.261Z,54.07
2017-08-09T14:21:09.808Z,54.12
2017-08-09T14:23:37.334Z,54.15
2017-08-09T14:26:04.884Z,54.17
2017-08-09T14:28:32.405Z,54.08
2017-08-09T14:30:59.953Z,54.10
2017-08-09T14:33:27.476Z,54.12
2017-08-09T14:35:55.039Z,54.24
2017-08-09T14:38:22.555Z,54.19
2017-08-09T14:40:50.134Z,54.26
2017-08-09T14:43:17.657Z,54.25
2017-08-09T14:45:45.206Z,54.27
2017-08-09T14:48:12.726Z,54.25
2017-08-09T14:50:40.244Z,54.24
2017-08-09T14:53:07.797Z,54.19
2017-08-09T14:55:35.312Z,54.25
2017-08-09T14:58:02.867Z,54.26
2017-08-09T15:00:30.384Z,54.17
2017-08-09T15:02:57.937Z,54.37
2017-08-09T15:05:25.469Z,54.35
2017-08-09T15:07:53.022Z,54.33
2017-08-09T15:10:20.532Z,54.27
2017-08-09T15:12:48.079Z,54.47
2017-08-09T15:15:15.591Z,54.41
2017-08-09T15:17:43.145Z,54.45
2017-08-09T15:20:10.674Z,54.39
2017-08-09T15:22:38.243Z,54.37
2017-08-09T15:25:05.761Z,54.33
2017-08-09T15:27:33.286Z,54.39
2017-08-09T15:30:01.211Z,54.53
2017-08-09T15:32:28.732Z,54.33
2017-08-09T15:34:56.278Z,54.27
2017-08-09T15:37:23.804Z,54.26
2017-08-09T15:39:51.357Z,54.47
2017-08-09T15:42:18.878Z,54.46
2017-08-09T15:44:46.438Z,54.31
2017-08-09T15:47:13.958Z,54.42
2017-08-09T15:49:41.521Z,54.38
2017-08-09T15:52:09.041Z,54.50
2017-08-09T15:54:36.589Z,54.38
2017-08-09T15:57:04.108Z,54.49
2017-08-09T15:59:31.659Z,54.38
2017-08-09T16:01:59.176Z,54.46
2017-08-09T16:04:26.755Z,54.46
2017-08-09T16:06:54.278Z,54.29
2017-08-09T16:09:21.791Z,54.45
2017-08-09T16:11:49.342Z,54.42
2017-08-09T16:14:16.869Z,54.43
2017-08-09T16:16:44.430Z,54.54
2017-08-09T16:19:11.947Z,54.48
2017-08-09T16:21:39.505Z,54.56
2017-08-09T16:24:07.025Z,54.60
2017-08-09T16:26:34.572Z,54.54
2017-08-09T16:29:02.094Z,54.66
2017-08-09T16:31:29.652Z,54.66
2017-08-09T16:33:57.170Z,54.61
2017-08-09T16:36:24.718Z,54.48
2017-08-09T16:38:52.241Z,54.49
2017-08-09T16:41:19.793Z,54.61
2017-08-09T16:43:47.309Z,54.69
2017-08-09T16:46:14.859Z,54.73
2017-08-09T16:48:42.373Z,54.67
2017-08-09T16:51:09.917Z,54.65
2017-08-09T16:53:37.434Z,54.60
2017-08-09T16:56:04.948Z,54.54
2017-08-09T16:58:32.492Z,54.61
2017-08-09T17:01:00.008Z,54.79
2017-08-09T17:03:27.557Z,54.61
2017-08-09T17:05:55.087Z,54.58
2017-08-09T17:08:22.638Z,54.72
2017-08-09T17:10:50.164Z,54.64
2017-08-09T17:13:17.745Z,54.61
2017-08-09T17:15:45.276Z,54.60
2017-08-09T17:18:12.825Z,54.63
2017-08-09T17:20:40.352Z,54.66
2017-08-09T17:23:07.911Z,54.76
2017-08-09T17:25:35.434Z,54.71
2017-08-09T17:28:02.989Z,54.75
2017-08-09T17:30:30.504Z,54.65
2017-08-09T17:32:58.056Z,54.71
2017-08-09T17:35:25.580Z,54.57
2017-08-09T17:37:53.133Z,54.61
2017-08-09T17:40:20.643Z,54.76
2017-08-09T17:42:48.215Z,54.85
2017-08-09T17:45:15.746Z,54.78
2017-08-09T17:47:43.268Z,54.71
2017-08-09T17:50:10.821Z,54.70
2017-08-09T17:52:38.341Z,54.67
2017-08-09T17:55:05.892Z,54.52
2017-08-09T17:57:33.411Z,54.65
2017-08-09T18:00:00.965Z,54.80
2017-08-09T18:02:28.476Z,55.06
2017-08-09T18:04:56.251Z,54.77
2017-08-09T18:07:24.133Z,54.88
2017-08-09T18:09:51.882Z,55.45
2017-08-09T18:12:20.037Z,55.30
2017-08-09T18:14:47.724Z,55.48
2017-08-09T18:17:15.281Z,55.37
2017-08-09T18:19:42.864Z,55.30
2017-08-09T18:22:10.384Z,55.54
2017-08-09T18:24:37.940Z,55.43
2017-08-09T18:27:05.465Z,55.40
2017-08-09T18:29:33.042Z,55.50
2017-08-09T18:32:00.844Z,55.50
2017-08-09T18:34:28.381Z,55.34
2017-08-09T18:36:55.930Z,55.32
2017-08-09T18:39:23.444Z,55.17
2017-08-09T18:41:50.989Z,54.97
2017-08-09T18:44:18.506Z,54.72
2017-08-09T18:46:46.054Z,54.64
2017-08-09T18:49:13.570Z,54.63
2017-08-09T18:51:41.118Z,54.48
2017-08-09T18:54:08.633Z,54.48
2017-08-09T18:56:36.179Z,54.53
2017-08-09T18:59:03.693Z,54.35
2017-08-09T19:01:31.416Z,54.43
2017-08-09T19:03:58.979Z,54.71
2017-08-09T19:06:26.531Z,54.68
2017-08-09T19:08:54.051Z,54.62
2017-08-09T19:11:21.604Z,54.61
2017-08-09T19:13:49.123Z,54.47
2017-08-09T19:16:16.678Z,54.34
2017-08-09T19:18:44.199Z,54.45
2017-08-09T19:21:11.843Z,54.36
2017-08-09T19:23:39.436Z,54.42
2017-08-09T19:26:06.997Z,54.33
2017-08-09T19:28:34.548Z,54.39
2017-08-09T19:31:02.070Z,54.26
2017-08-09T19:33:29.697Z,54.31
2017-08-09T19:35:57.330Z,54.31
2017-08-09T19:38:24.886Z,54.47
2017-08-09T19:40:52.403Z,54.37
2017-08-09T19:43:19.957Z,54.38
2017-08-09T19:45:47.477Z,54.40
2017-08-09T19:48:15.029Z,54.46
2017-08-09T19:50:42.549Z,54.47
2017-08-09T19:53:10.105Z,54.47
2017-08-09T19:55:37.629Z,54.50
2017-08-09T19:58:05.185Z,54.63
2017-08-09T20:00:32.702Z,54.68
2017-08-09T20:03:00.277Z,54.81
2017-08-09T20:05:28.183Z,55.04
2017-08-09T20:07:55.704Z,55.02
2017-08-09T20:10:23.256Z,54.90
2017-08-09T20:12:50.781Z,54.97
2017-08-09T20:15:18.335Z,54.87
2017-08-09T20:17:45.861Z,54.98
2017-08-09T20:20:13.407Z,55.03
2017-08-09T20:22:40.917Z,55.15
2017-08-09T20:25:08.465Z,55.17
2017-08-09T20:27:36.022Z,55.16
2017-08-09T20:30:03.604Z,55.12
2017-08-09T20:32:31.127Z,55.35
2017-08-09T20:34:58.689Z,55.78
2017-08-09T20:37:26.229Z,56.16
2017-08-09T20:39:53.801Z,56.86
2017-08-09T20:42:21.333Z,56.89
2017-08-09T20:44:48.879Z,56.95
2017-08-09T20:47:16.426Z,57.13
2017-08-09T20:49:43.951Z,57.59
2017-08-09T20:52:11.491Z,57.68
2017-08-09T20:54:39.015Z,57.69
2017-08-09T20:57:06.568Z,57.87
2017-08-09T20:59:34.193Z,58.04
2017-08-09T21:02:01.745Z,58.11
2017-08-09T21:04:29.257Z,58.16
2017-08-09T21:06:56.809Z,57.91
2017-08-09T21:09:24.330Z,57.78
2017-08-09T21:11:51.891Z,58.18
2017-08-09T21:14:19.430Z,58.23
2017-08-09T21:16:46.980Z,58.20
2017-08-09T21:19:14.549Z,58.00
2017-08-09T21:21:42.112Z,58.36
2017-08-09T21:24:09.660Z,58.32
2017-08-09T21:26:37.209Z,58.51
2017-08-09T21:29:04.738Z,58.36
2017-08-09T21:31:33.158Z,58.79
2017-08-09T21:34:00.674Z,58.66
2017-08-09T21:36:28.188Z,58.63
2017-08-09T21:38:55.733Z,58.51
2017-08-09T21:41:23.260Z,58.92
2017-08-09T21:43:50.810Z,58.64
2017-08-09T21:46:18.365Z,58.84
2017-08-09T21:48:45.915Z,58.75
2017-08-09T21:51:13.432Z,58.64
2017-08-09T21:53:40.981Z,58.62
2017-08-09T21:56:08.502Z,58.57
2017-08-09T21:58:36.079Z,58.81
2017-08-09T22:01:03.632Z,58.88
2017-08-09T22:03:31.184Z,58.95
2017-08-09T22:05:58.727Z,58.97
2017-08-09T22:08:26.277Z,59.00
2017-08-09T22:10:53.802Z,59.07
2017-08-09T22:13:21.345Z,58.98
2017-08-09T22:15:48.865Z,58.79
2017-08-09T22:18:16.425Z,58.86
2017-08-09T22:20:43.947Z,58.88
2017-08-09T22:23:11.510Z,58.81
2017-08-09T22:25:39.026Z,58.81
2017-08-09T22:28:06.557Z,58.89
2017-08-09T22:30:34.117Z,58.89
2017-08-09T22:33:01.650Z,58.82
2017-08-09T22:35:29.282Z,58.75
2017-08-09T22:37:56.821Z,58.66
2017-08-09T22:40:24.398Z,58.73
2017-08-09T22:42:51.922Z,58.79
2017-08-09T22:45:19.470Z,58.65
2017-08-09T22:47:46.987Z,58.61
2017-08-09T22:50:14.535Z,58.53
2017-08-09T22:52:42.058Z,58.46
2017-08-09T22:55:09.618Z,58.49
2017-08-09T22:57:37.146Z,58.41
2017-08-09T23:00:04.724Z,58.44
2017-08-09T23:02:32.283Z,58.36
2017-08-09T23:04:59.824Z,58.44
2017-08-09T23:07:27.372Z,58.46
2017-08-09T23:09:54.906Z,58.42
2017-08-09T23:12:22.464Z,58.37
2017-08-09T23:14:49.997Z,58.52
2017-08-09T23:17:17.557Z,58.48
2017-08-09T23:19:45.161Z,58.38
2017-08-09T23:22:12.710Z,58.52
2017-08-09T23:24:40.228Z,58.68
2017-08-09T23:27:07.774Z,58.54
2017-08-09T23:29:35.290Z,58.42
2017-08-09T23:32:02.838Z,58.51
2017-08-09T23:34:30.354Z,58.49
2017-08-09T23:36:57.910Z,58.59
2017-08-09T23:39:25.441Z,58.51
2017-08-09T23:41:52.959Z,58.48
2017-08-09T23:44:20.522Z,58.59
2017-08-09T23:46:48.070Z,58.57
2017-08-09T23:49:15.626Z,58.67
2017-08-09T23:51:43.151Z,58.51
2017-08-09T23:54:10.709Z,58.73
2017-08-09T23:56:38.225Z,58.66
2017-08-09T23:59:05.769Z,58.80
